sensor_id;sensor_type;location;lat;lon;timestamp;P1;durP1;ratioP1;P2;durP2;ratioP2
11024;SDS011;22890;51.820;8.682;2022-10-16T00:01:19;4.03;;;2.10;;
11024;SDS011;22890;51.820;8.682;2022-10-16T00:03:47;3.63;;;2.10;;
11024;SDS011;22890;51.820;8.682;2022-10-16T00:06:15;3.13;;;2.10;;
11024;SDS011;22890;51.820;8.682;2022-10-16T00:08:43;3.20;;;1.97;;
11024;SDS011;22890;51.820;8.682;2022-10-16T00:11:11;2.87;;;2.10;;
11024;SDS011;22890;51.820;8.682;2022-10-16T00:13:44;3.07;;;2.60;;
11024;SDS011;22890;51.820;8.682;2022-10-16T00:16:16;3.20;;;2.03;;
11024;SDS011;22890;51.820;8.682;2022-10-16T00:18:43;4.10;;;2.37;;
11024;SDS011;22890;51.820;8.682;2022-10-16T00:21:17;4.77;;;2.60;;
11024;SDS011;22890;51.820;8.682;2022-10-16T00:23:46;3.70;;;1.83;;
11024;SDS011;22890;51.820;8.682;2022-10-16T00:26:16;7.03;;;2.00;;
11024;SDS011;22890;51.820;8.682;2022-10-16T00:28:48;4.57;;;2.10;;
11024;SDS011;22890;51.820;8.682;2022-10-16T00:31:16;3.07;;;2.00;;
11024;SDS011;22890;51.820;8.682;2022-10-16T00:33:44;3.30;;;2.03;;
11024;SDS011;22890;51.820;8.682;2022-10-16T00:36:12;5.13;;;2.20;;
11024;SDS011;22890;51.820;8.682;2022-10-16T00:38:42;6.07;;;1.80;;
11024;SDS011;22890;51.820;8.682;2022-10-16T00:41:13;5.37;;;2.17;;
11024;SDS011;22890;51.820;8.682;2022-10-16T00:43:45;2.53;;;2.33;;
11024;SDS011;22890;51.820;8.682;2022-10-16T00:46:20;6.37;;;2.17;;
11024;SDS011;22890;51.820;8.682;2022-10-16T00:51:25;4.77;;;2.80;;
11024;SDS011;22890;51.820;8.682;2022-10-16T00:53:59;5.57;;;2.73;;
11024;SDS011;22890;51.820;8.682;2022-10-16T00:56:27;6.73;;;2.43;;
11024;SDS011;22890;51.820;8.682;2022-10-16T00:58:54;3.00;;;2.53;;
11024;SDS011;22890;51.820;8.682;2022-10-16T01:01:20;5.80;;;2.23;;
11024;SDS011;22890;51.820;8.682;2022-10-16T01:03:47;5.47;;;2.63;;
11024;SDS011;22890;51.820;8.682;2022-10-16T01:06:24;9.83;;;2.50;;
11024;SDS011;22890;51.820;8.682;2022-10-16T01:14:32;4.90;;;2.33;;
11024;SDS011;22890;51.820;8.682;2022-10-16T01:17:51;5.50;;;2.60;;
11024;SDS011;22890;51.820;8.682;2022-10-16T01:20:27;7.07;;;2.20;;
11024;SDS011;22890;51.820;8.682;2022-10-16T01:23:04;3.33;;;2.63;;
11024;SDS011;22890;51.820;8.682;2022-10-16T01:28:39;3.27;;;2.50;;
11024;SDS011;22890;51.820;8.682;2022-10-16T01:31:07;5.37;;;2.70;;
11024;SDS011;22890;51.820;8.682;2022-10-16T01:33:44;3.90;;;2.40;;
11024;SDS011;22890;51.820;8.682;2022-10-16T01:36:15;5.07;;;2.17;;
11024;SDS011;22890;51.820;8.682;2022-10-16T01:38:47;5.90;;;2.30;;
11024;SDS011;22890;51.820;8.682;2022-10-16T01:41:20;6.40;;;2.40;;
11024;SDS011;22890;51.820;8.682;2022-10-16T01:46:35;3.47;;;2.30;;
11024;SDS011;22890;51.820;8.682;2022-10-16T01:49:03;5.67;;;2.60;;
11024;SDS011;22890;51.820;8.682;2022-10-16T01:51:32;3.00;;;2.57;;
11024;SDS011;22890;51.820;8.682;2022-10-16T01:54:01;4.03;;;2.50;;
11024;SDS011;22890;51.820;8.682;2022-10-16T01:56:29;2.73;;;2.47;;
11024;SDS011;22890;51.820;8.682;2022-10-16T01:58:59;7.00;;;2.60;;
11024;SDS011;22890;51.820;8.682;2022-10-16T02:01:31;4.93;;;2.60;;
11024;SDS011;22890;51.820;8.682;2022-10-16T02:04:02;6.20;;;2.37;;
11024;SDS011;22890;51.820;8.682;2022-10-16T02:06:35;7.70;;;2.97;;
11024;SDS011;22890;51.820;8.682;2022-10-16T02:09:02;9.90;;;3.40;;
11024;SDS011;22890;51.820;8.682;2022-10-16T02:11:28;6.70;;;2.60;;
11024;SDS011;22890;51.820;8.682;2022-10-16T02:13:58;8.93;;;2.60;;
11024;SDS011;22890;51.820;8.682;2022-10-16T02:16:35;8.33;;;3.00;;
11024;SDS011;22890;51.820;8.682;2022-10-16T02:19:05;7.47;;;2.70;;
11024;SDS011;22890;51.820;8.682;2022-10-16T02:24:39;9.53;;;2.93;;
11024;SDS011;22890;51.820;8.682;2022-10-16T02:27:23;4.87;;;2.77;;
11024;SDS011;22890;51.820;8.682;2022-10-16T02:29:52;9.17;;;2.70;;
11024;SDS011;22890;51.820;8.682;2022-10-16T02:32:26;8.10;;;2.90;;
11024;SDS011;22890;51.820;8.682;2022-10-16T02:34:56;6.20;;;2.93;;
11024;SDS011;22890;51.820;8.682;2022-10-16T02:37:26;4.57;;;2.70;;
11024;SDS011;22890;51.820;8.682;2022-10-16T02:39:54;5.07;;;3.10;;
11024;SDS011;22890;51.820;8.682;2022-10-16T02:42:27;5.33;;;2.53;;
11024;SDS011;22890;51.820;8.682;2022-10-16T02:44:55;4.40;;;2.93;;
11024;SDS011;22890;51.820;8.682;2022-10-16T02:47:22;7.03;;;2.53;;
11024;SDS011;22890;51.820;8.682;2022-10-16T02:49:49;5.17;;;2.33;;
11024;SDS011;22890;51.820;8.682;2022-10-16T02:52:15;8.57;;;2.40;;
11024;SDS011;22890;51.820;8.682;2022-10-16T02:54:42;6.30;;;2.53;;
11024;SDS011;22890;51.820;8.682;2022-10-16T02:57:08;6.30;;;2.53;;
11024;SDS011;22890;51.820;8.682;2022-10-16T02:59:35;3.17;;;2.33;;
11024;SDS011;22890;51.820;8.682;2022-10-16T03:02:02;4.20;;;2.90;;
11024;SDS011;22890;51.820;8.682;2022-10-16T03:04:28;4.43;;;2.70;;
11024;SDS011;22890;51.820;8.682;2022-10-16T03:06:55;4.90;;;2.40;;
11024;SDS011;22890;51.820;8.682;2022-10-16T03:09:22;3.60;;;2.40;;
11024;SDS011;22890;51.820;8.682;2022-10-16T03:11:48;11.73;;;2.53;;
11024;SDS011;22890;51.820;8.682;2022-10-16T03:14:15;6.13;;;2.80;;
11024;SDS011;22890;51.820;8.682;2022-10-16T03:16:42;4.37;;;2.70;;
11024;SDS011;22890;51.820;8.682;2022-10-16T03:19:08;5.00;;;2.80;;
11024;SDS011;22890;51.820;8.682;2022-10-16T03:21:35;2.83;;;2.30;;
11024;SDS011;22890;51.820;8.682;2022-10-16T03:24:01;3.27;;;2.30;;
11024;SDS011;22890;51.820;8.682;2022-10-16T03:26:28;3.70;;;2.53;;
11024;SDS011;22890;51.820;8.682;2022-10-16T03:28:55;3.00;;;2.57;;
11024;SDS011;22890;51.820;8.682;2022-10-16T03:31:22;4.07;;;2.43;;
11024;SDS011;22890;51.820;8.682;2022-10-16T03:33:48;6.30;;;1.93;;
11024;SDS011;22890;51.820;8.682;2022-10-16T03:36:15;3.70;;;2.13;;
11024;SDS011;22890;51.820;8.682;2022-10-16T03:38:42;4.43;;;2.50;;
11024;SDS011;22890;51.820;8.682;2022-10-16T03:41:08;5.73;;;2.47;;
11024;SDS011;22890;51.820;8.682;2022-10-16T03:43:35;2.90;;;1.90;;
11024;SDS011;22890;51.820;8.682;2022-10-16T03:46:02;2.77;;;1.70;;
11024;SDS011;22890;51.820;8.682;2022-10-16T03:48:28;2.40;;;2.20;;
11024;SDS011;22890;51.820;8.682;2022-10-16T03:50:55;2.10;;;1.70;;
11024;SDS011;22890;51.820;8.682;2022-10-16T03:53:22;3.17;;;2.10;;
11024;SDS011;22890;51.820;8.682;2022-10-16T03:55:49;4.37;;;1.67;;
11024;SDS011;22890;51.820;8.682;2022-10-16T03:58:15;2.33;;;1.63;;
11024;SDS011;22890;51.820;8.682;2022-10-16T04:00:42;4.13;;;1.33;;
11024;SDS011;22890;51.820;8.682;2022-10-16T04:03:11;1.67;;;1.30;;
11024;SDS011;22890;51.820;8.682;2022-10-16T04:05:38;1.93;;;1.50;;
11024;SDS011;22890;51.820;8.682;2022-10-16T04:08:04;1.97;;;1.70;;
11024;SDS011;22890;51.820;8.682;2022-10-16T04:10:32;4.03;;;1.23;;
11024;SDS011;22890;51.820;8.682;2022-10-16T04:12:58;1.70;;;1.60;;
11024;SDS011;22890;51.820;8.682;2022-10-16T04:15:25;1.20;;;1.10;;
11024;SDS011;22890;51.820;8.682;2022-10-16T04:17:52;2.73;;;1.13;;
11024;SDS011;22890;51.820;8.682;2022-10-16T04:20:19;2.40;;;1.10;;
11024;SDS011;22890;51.820;8.682;2022-10-16T04:22:45;2.50;;;1.20;;
11024;SDS011;22890;51.820;8.682;2022-10-16T04:25:12;1.87;;;1.40;;
11024;SDS011;22890;51.820;8.682;2022-10-16T04:27:39;3.20;;;1.37;;
11024;SDS011;22890;51.820;8.682;2022-10-16T04:30:11;2.03;;;1.63;;
11024;SDS011;22890;51.820;8.682;2022-10-16T04:32:37;5.70;;;1.40;;
11024;SDS011;22890;51.820;8.682;2022-10-16T04:35:04;5.60;;;1.33;;
11024;SDS011;22890;51.820;8.682;2022-10-16T04:37:32;2.77;;;1.50;;
11024;SDS011;22890;51.820;8.682;2022-10-16T04:39:58;1.93;;;1.67;;
11024;SDS011;22890;51.820;8.682;2022-10-16T04:42:25;3.03;;;1.40;;
11024;SDS011;22890;51.820;8.682;2022-10-16T04:44:51;4.00;;;1.30;;
11024;SDS011;22890;51.820;8.682;2022-10-16T04:47:18;2.50;;;1.30;;
11024;SDS011;22890;51.820;8.682;2022-10-16T04:49:45;1.17;;;1.10;;
11024;SDS011;22890;51.820;8.682;2022-10-16T04:52:11;2.93;;;1.63;;
11024;SDS011;22890;51.820;8.682;2022-10-16T04:54:38;1.73;;;1.27;;
11024;SDS011;22890;51.820;8.682;2022-10-16T04:57:05;3.43;;;1.43;;
11024;SDS011;22890;51.820;8.682;2022-10-16T04:59:31;4.33;;;1.33;;
11024;SDS011;22890;51.820;8.682;2022-10-16T05:01:58;3.60;;;1.57;;
11024;SDS011;22890;51.820;8.682;2022-10-16T05:04:24;3.43;;;1.17;;
11024;SDS011;22890;51.820;8.682;2022-10-16T05:06:51;1.90;;;1.60;;
11024;SDS011;22890;51.820;8.682;2022-10-16T05:09:17;4.97;;;1.40;;
11024;SDS011;22890;51.820;8.682;2022-10-16T05:11:44;2.70;;;1.40;;
11024;SDS011;22890;51.820;8.682;2022-10-16T05:14:11;2.63;;;1.37;;
11024;SDS011;22890;51.820;8.682;2022-10-16T05:16:37;2.97;;;1.10;;
11024;SDS011;22890;51.820;8.682;2022-10-16T05:19:04;3.50;;;1.70;;
11024;SDS011;22890;51.820;8.682;2022-10-16T05:21:51;3.90;;;1.70;;
11024;SDS011;22890;51.820;8.682;2022-10-16T05:24:17;3.23;;;1.50;;
11024;SDS011;22890;51.820;8.682;2022-10-16T05:26:44;6.23;;;1.90;;
11024;SDS011;22890;51.820;8.682;2022-10-16T05:29:10;2.03;;;1.50;;
11024;SDS011;22890;51.820;8.682;2022-10-16T05:31:37;2.50;;;1.60;;
11024;SDS011;22890;51.820;8.682;2022-10-16T05:34:04;2.77;;;1.43;;
11024;SDS011;22890;51.820;8.682;2022-10-16T05:36:30;5.33;;;1.70;;
11024;SDS011;22890;51.820;8.682;2022-10-16T05:38:57;2.57;;;1.60;;
11024;SDS011;22890;51.820;8.682;2022-10-16T05:41:23;3.53;;;1.50;;
11024;SDS011;22890;51.820;8.682;2022-10-16T05:43:52;3.80;;;1.90;;
11024;SDS011;22890;51.820;8.682;2022-10-16T05:46:19;4.80;;;1.73;;
11024;SDS011;22890;51.820;8.682;2022-10-16T05:48:46;2.43;;;1.67;;
11024;SDS011;22890;51.820;8.682;2022-10-16T05:51:13;1.40;;;1.30;;
11024;SDS011;22890;51.820;8.682;2022-10-16T05:53:40;1.77;;;1.40;;
11024;SDS011;22890;51.820;8.682;2022-10-16T05:56:12;2.40;;;1.30;;
11024;SDS011;22890;51.820;8.682;2022-10-16T05:58:39;1.37;;;1.23;;
11024;SDS011;22890;51.820;8.682;2022-10-16T06:01:09;1.43;;;1.33;;
11024;SDS011;22890;51.820;8.682;2022-10-16T06:03:40;2.20;;;1.30;;
11024;SDS011;22890;51.820;8.682;2022-10-16T06:06:08;1.50;;;1.40;;
11024;SDS011;22890;51.820;8.682;2022-10-16T06:08:37;1.40;;;1.30;;
11024;SDS011;22890;51.820;8.682;2022-10-16T06:11:07;3.57;;;1.40;;
11024;SDS011;22890;51.820;8.682;2022-10-16T06:13:35;2.13;;;1.30;;
11024;SDS011;22890;51.820;8.682;2022-10-16T06:16:02;2.37;;;1.20;;
11024;SDS011;22890;51.820;8.682;2022-10-16T06:18:29;0.97;;;0.97;;
11024;SDS011;22890;51.820;8.682;2022-10-16T06:20:57;1.30;;;1.20;;
11024;SDS011;22890;51.820;8.682;2022-10-16T06:23:25;2.40;;;1.60;;
11024;SDS011;22890;51.820;8.682;2022-10-16T06:25:54;4.90;;;1.27;;
11024;SDS011;22890;51.820;8.682;2022-10-16T06:28:20;6.50;;;1.40;;
11024;SDS011;22890;51.820;8.682;2022-10-16T06:30:47;2.63;;;1.50;;
11024;SDS011;22890;51.820;8.682;2022-10-16T06:33:14;3.70;;;1.27;;
11024;SDS011;22890;51.820;8.682;2022-10-16T06:35:40;3.60;;;1.30;;
11024;SDS011;22890;51.820;8.682;2022-10-16T06:38:07;1.33;;;1.20;;
11024;SDS011;22890;51.820;8.682;2022-10-16T06:40:33;3.47;;;1.50;;
11024;SDS011;22890;51.820;8.682;2022-10-16T06:43:00;2.00;;;1.50;;
11024;SDS011;22890;51.820;8.682;2022-10-16T06:45:26;1.60;;;1.50;;
11024;SDS011;22890;51.820;8.682;2022-10-16T06:47:53;1.20;;;1.10;;
11024;SDS011;22890;51.820;8.682;2022-10-16T06:50:20;3.00;;;1.73;;
11024;SDS011;22890;51.820;8.682;2022-10-16T06:52:46;1.50;;;1.40;;
11024;SDS011;22890;51.820;8.682;2022-10-16T06:55:13;1.87;;;1.57;;
11024;SDS011;22890;51.820;8.682;2022-10-16T06:57:40;1.63;;;1.53;;
11024;SDS011;22890;51.820;8.682;2022-10-16T07:00:07;1.50;;;1.40;;
11024;SDS011;22890;51.820;8.682;2022-10-16T07:02:34;1.57;;;1.47;;
11024;SDS011;22890;51.820;8.682;2022-10-16T07:05:01;1.50;;;1.17;;
11024;SDS011;22890;51.820;8.682;2022-10-16T07:07:27;1.80;;;1.40;;
11024;SDS011;22890;51.820;8.682;2022-10-16T07:09:54;2.10;;;1.10;;
11024;SDS011;22890;51.820;8.682;2022-10-16T07:12:21;2.90;;;1.10;;
11024;SDS011;22890;51.820;8.682;2022-10-16T07:14:47;1.77;;;1.10;;
11024;SDS011;22890;51.820;8.682;2022-10-16T07:17:18;1.10;;;1.00;;
11024;SDS011;22890;51.820;8.682;2022-10-16T07:19:44;1.60;;;1.10;;
11024;SDS011;22890;51.820;8.682;2022-10-16T07:22:11;1.00;;;1.00;;
11024;SDS011;22890;51.820;8.682;2022-10-16T07:24:38;1.83;;;1.17;;
11024;SDS011;22890;51.820;8.682;2022-10-16T07:27:04;1.40;;;1.00;;
11024;SDS011;22890;51.820;8.682;2022-10-16T07:29:31;1.17;;;1.00;;
11024;SDS011;22890;51.820;8.682;2022-10-16T07:31:57;1.07;;;0.97;;
11024;SDS011;22890;51.820;8.682;2022-10-16T07:34:24;1.40;;;1.30;;
11024;SDS011;22890;51.820;8.682;2022-10-16T07:36:52;1.83;;;1.17;;
11024;SDS011;22890;51.820;8.682;2022-10-16T07:39:19;4.07;;;1.70;;
11024;SDS011;22890;51.820;8.682;2022-10-16T07:41:46;1.77;;;1.17;;
11024;SDS011;22890;51.820;8.682;2022-10-16T07:44:15;2.03;;;1.20;;
11024;SDS011;22890;51.820;8.682;2022-10-16T07:46:41;3.03;;;1.03;;
11024;SDS011;22890;51.820;8.682;2022-10-16T07:49:08;2.97;;;1.73;;
11024;SDS011;22890;51.820;8.682;2022-10-16T07:51:35;2.27;;;1.00;;
11024;SDS011;22890;51.820;8.682;2022-10-16T07:54:01;2.10;;;1.00;;
11024;SDS011;22890;51.820;8.682;2022-10-16T07:56:29;1.53;;;1.20;;
11024;SDS011;22890;51.820;8.682;2022-10-16T07:58:57;7.97;;;1.10;;
11024;SDS011;22890;51.820;8.682;2022-10-16T08:01:24;2.73;;;1.17;;
11024;SDS011;22890;51.820;8.682;2022-10-16T08:03:51;2.00;;;1.10;;
11024;SDS011;22890;51.820;8.682;2022-10-16T08:06:19;3.00;;;1.10;;
11024;SDS011;22890;51.820;8.682;2022-10-16T08:08:53;0.80;;;0.80;;
11024;SDS011;22890;51.820;8.682;2022-10-16T08:11:20;1.40;;;1.30;;
11024;SDS011;22890;51.820;8.682;2022-10-16T08:13:47;2.90;;;1.30;;
11024;SDS011;22890;51.820;8.682;2022-10-16T08:16:14;2.73;;;1.30;;
11024;SDS011;22890;51.820;8.682;2022-10-16T08:18:41;1.53;;;1.30;;
11024;SDS011;22890;51.820;8.682;2022-10-16T08:21:11;2.30;;;1.20;;
11024;SDS011;22890;51.820;8.682;2022-10-16T08:23:46;1.10;;;1.10;;
11024;SDS011;22890;51.820;8.682;2022-10-16T08:26:22;2.00;;;1.17;;
11024;SDS011;22890;51.820;8.682;2022-10-16T08:28:51;2.37;;;0.90;;
11024;SDS011;22890;51.820;8.682;2022-10-16T08:31:18;1.83;;;1.20;;
11024;SDS011;22890;51.820;8.682;2022-10-16T08:33:45;1.87;;;1.10;;
11024;SDS011;22890;51.820;8.682;2022-10-16T08:36:13;2.40;;;1.20;;
11024;SDS011;22890;51.820;8.682;2022-10-16T08:38:41;2.20;;;1.30;;
11024;SDS011;22890;51.820;8.682;2022-10-16T08:41:28;5.80;;;1.40;;
11024;SDS011;22890;51.820;8.682;2022-10-16T08:44:09;2.17;;;1.97;;
11024;SDS011;22890;51.820;8.682;2022-10-16T08:46:50;1.47;;;0.90;;
11024;SDS011;22890;51.820;8.682;2022-10-16T08:49:30;1.63;;;1.00;;
11024;SDS011;22890;51.820;8.682;2022-10-16T08:51:57;1.10;;;1.00;;
11024;SDS011;22890;51.820;8.682;2022-10-16T08:56:56;1.10;;;1.10;;
11024;SDS011;22890;51.820;8.682;2022-10-16T08:59:49;2.67;;;1.67;;
11024;SDS011;22890;51.820;8.682;2022-10-16T09:02:23;1.63;;;1.30;;
11024;SDS011;22890;51.820;8.682;2022-10-16T09:08:20;1.80;;;0.97;;
11024;SDS011;22890;51.820;8.682;2022-10-16T09:11:12;1.50;;;0.87;;
11024;SDS011;22890;51.820;8.682;2022-10-16T09:16:30;0.80;;;0.80;;
11024;SDS011;22890;51.820;8.682;2022-10-16T09:19:12;0.77;;;0.77;;
11024;SDS011;22890;51.820;8.682;2022-10-16T09:21:49;1.17;;;0.80;;
11024;SDS011;22890;51.820;8.682;2022-10-16T09:24:17;4.07;;;1.10;;
11024;SDS011;22890;51.820;8.682;2022-10-16T09:26:52;1.37;;;0.83;;
11024;SDS011;22890;51.820;8.682;2022-10-16T09:29:19;1.87;;;0.80;;
11024;SDS011;22890;51.820;8.682;2022-10-16T09:31:47;1.23;;;0.80;;
11024;SDS011;22890;51.820;8.682;2022-10-16T09:34:29;2.07;;;0.70;;
11024;SDS011;22890;51.820;8.682;2022-10-16T09:36:59;2.83;;;0.77;;
11024;SDS011;22890;51.820;8.682;2022-10-16T09:39:30;1.53;;;0.80;;
11024;SDS011;22890;51.820;8.682;2022-10-16T09:41:56;2.00;;;0.87;;
11024;SDS011;22890;51.820;8.682;2022-10-16T09:44:27;1.03;;;0.93;;
11024;SDS011;22890;51.820;8.682;2022-10-16T09:49:51;1.23;;;0.63;;
11024;SDS011;22890;51.820;8.682;2022-10-16T09:52:18;1.23;;;1.13;;
11024;SDS011;22890;51.820;8.682;2022-10-16T09:54:49;1.07;;;0.60;;
11024;SDS011;22890;51.820;8.682;2022-10-16T09:57:17;1.77;;;0.83;;
11024;SDS011;22890;51.820;8.682;2022-10-16T09:59:46;0.93;;;0.73;;
11024;SDS011;22890;51.820;8.682;2022-10-16T10:02:18;2.30;;;0.93;;
11024;SDS011;22890;51.820;8.682;2022-10-16T10:04:53;3.60;;;0.80;;
11024;SDS011;22890;51.820;8.682;2022-10-16T10:07:27;2.03;;;0.90;;
11024;SDS011;22890;51.820;8.682;2022-10-16T10:09:59;2.00;;;0.97;;
11024;SDS011;22890;51.820;8.682;2022-10-16T10:12:29;3.77;;;0.80;;
11024;SDS011;22890;51.820;8.682;2022-10-16T10:15:03;1.60;;;0.60;;
11024;SDS011;22890;51.820;8.682;2022-10-16T10:17:33;0.60;;;0.60;;
11024;SDS011;22890;51.820;8.682;2022-10-16T10:20:01;2.47;;;0.80;;
11024;SDS011;22890;51.820;8.682;2022-10-16T10:22:58;3.77;;;0.83;;
11024;SDS011;22890;51.820;8.682;2022-10-16T10:25:43;1.80;;;0.63;;
11024;SDS011;22890;51.820;8.682;2022-10-16T10:28:45;1.07;;;0.70;;
11024;SDS011;22890;51.820;8.682;2022-10-16T10:31:21;1.97;;;0.87;;
11024;SDS011;22890;51.820;8.682;2022-10-16T10:39:20;1.50;;;0.60;;
11024;SDS011;22890;51.820;8.682;2022-10-16T10:42:04;1.43;;;0.50;;
11024;SDS011;22890;51.820;8.682;2022-10-16T10:47:36;1.13;;;0.90;;
11024;SDS011;22890;51.820;8.682;2022-10-16T10:53:11;1.80;;;0.93;;
11024;SDS011;22890;51.820;8.682;2022-10-16T10:55:54;0.73;;;0.60;;
11024;SDS011;22890;51.820;8.682;2022-10-16T11:01:56;1.57;;;0.60;;
11024;SDS011;22890;51.820;8.682;2022-10-16T11:09:44;0.60;;;0.50;;
11024;SDS011;22890;51.820;8.682;2022-10-16T11:12:49;2.07;;;0.50;;
11024;SDS011;22890;51.820;8.682;2022-10-16T11:15:14;1.50;;;0.83;;
11024;SDS011;22890;51.820;8.682;2022-10-16T11:17:55;5.17;;;0.93;;
11024;SDS011;22890;51.820;8.682;2022-10-16T11:20:26;4.83;;;0.83;;
11024;SDS011;22890;51.820;8.682;2022-10-16T11:22:57;3.23;;;0.60;;
11024;SDS011;22890;51.820;8.682;2022-10-16T11:25:31;2.27;;;0.60;;
11024;SDS011;22890;51.820;8.682;2022-10-16T11:28:13;0.57;;;0.43;;
11024;SDS011;22890;51.820;8.682;2022-10-16T11:30:47;0.83;;;0.43;;
11024;SDS011;22890;51.820;8.682;2022-10-16T11:36:17;2.13;;;0.40;;
11024;SDS011;22890;51.820;8.682;2022-10-16T11:50:30;5.43;;;0.70;;
11024;SDS011;22890;51.820;8.682;2022-10-16T11:53:07;1.53;;;0.90;;
11024;SDS011;22890;51.820;8.682;2022-10-16T11:55:50;0.93;;;0.50;;
11024;SDS011;22890;51.820;8.682;2022-10-16T11:58:28;1.33;;;0.57;;
11024;SDS011;22890;51.820;8.682;2022-10-16T12:03:48;2.97;;;0.80;;
11024;SDS011;22890;51.820;8.682;2022-10-16T12:06:41;1.17;;;0.60;;
11024;SDS011;22890;51.820;8.682;2022-10-16T12:09:23;1.27;;;0.60;;
11024;SDS011;22890;51.820;8.682;2022-10-16T12:11:52;2.10;;;0.70;;
11024;SDS011;22890;51.820;8.682;2022-10-16T12:20:18;4.13;;;0.73;;
11024;SDS011;22890;51.820;8.682;2022-10-16T12:22:56;1.03;;;0.77;;
11024;SDS011;22890;51.820;8.682;2022-10-16T12:25:29;1.47;;;0.60;;
11024;SDS011;22890;51.820;8.682;2022-10-16T12:28:04;3.50;;;0.70;;
11024;SDS011;22890;51.820;8.682;2022-10-16T12:30:34;2.17;;;0.77;;
11024;SDS011;22890;51.820;8.682;2022-10-16T12:33:03;1.93;;;0.70;;
11024;SDS011;22890;51.820;8.682;2022-10-16T12:35:33;2.13;;;0.67;;
11024;SDS011;22890;51.820;8.682;2022-10-16T12:38:16;2.10;;;0.60;;
11024;SDS011;22890;51.820;8.682;2022-10-16T12:41:05;2.43;;;0.80;;
11024;SDS011;22890;51.820;8.682;2022-10-16T12:43:41;0.60;;;0.60;;
11024;SDS011;22890;51.820;8.682;2022-10-16T12:48:37;1.37;;;0.63;;
11024;SDS011;22890;51.820;8.682;2022-10-16T12:51:22;0.70;;;0.50;;
11024;SDS011;22890;51.820;8.682;2022-10-16T12:53:59;1.27;;;0.70;;
11024;SDS011;22890;51.820;8.682;2022-10-16T13:02:09;1.57;;;0.63;;
11024;SDS011;22890;51.820;8.682;2022-10-16T13:04:47;1.10;;;0.90;;
11024;SDS011;22890;51.820;8.682;2022-10-16T13:10:06;2.00;;;0.70;;
11024;SDS011;22890;51.820;8.682;2022-10-16T13:18:45;3.37;;;0.60;;
11024;SDS011;22890;51.820;8.682;2022-10-16T13:24:02;0.40;;;0.40;;
11024;SDS011;22890;51.820;8.682;2022-10-16T13:26:52;0.87;;;0.50;;
11024;SDS011;22890;51.820;8.682;2022-10-16T13:29:33;2.60;;;0.60;;
11024;SDS011;22890;51.820;8.682;2022-10-16T13:32:01;1.60;;;0.63;;
11024;SDS011;22890;51.820;8.682;2022-10-16T13:34:42;0.77;;;0.40;;
11024;SDS011;22890;51.820;8.682;2022-10-16T13:37:19;1.00;;;0.50;;
11024;SDS011;22890;51.820;8.682;2022-10-16T13:39:47;1.30;;;0.70;;
11024;SDS011;22890;51.820;8.682;2022-10-16T13:42:22;0.90;;;0.70;;
11024;SDS011;22890;51.820;8.682;2022-10-16T13:44:54;1.47;;;0.70;;
11024;SDS011;22890;51.820;8.682;2022-10-16T13:47:23;3.03;;;0.60;;
11024;SDS011;22890;51.820;8.682;2022-10-16T13:50:02;2.30;;;0.60;;
11024;SDS011;22890;51.820;8.682;2022-10-16T13:52:31;1.77;;;0.60;;
11024;SDS011;22890;51.820;8.682;2022-10-16T13:54:57;2.37;;;0.70;;
11024;SDS011;22890;51.820;8.682;2022-10-16T13:57:27;1.80;;;0.60;;
11024;SDS011;22890;51.820;8.682;2022-10-16T13:59:54;1.03;;;0.40;;
11024;SDS011;22890;51.820;8.682;2022-10-16T14:02:33;1.47;;;0.73;;
11024;SDS011;22890;51.820;8.682;2022-10-16T14:05:04;3.17;;;0.80;;
11024;SDS011;22890;51.820;8.682;2022-10-16T14:07:36;1.67;;;0.60;;
11024;SDS011;22890;51.820;8.682;2022-10-16T14:10:05;0.77;;;0.70;;
11024;SDS011;22890;51.820;8.682;2022-10-16T14:12:44;0.60;;;0.47;;
11024;SDS011;22890;51.820;8.682;2022-10-16T14:15:17;2.10;;;0.80;;
11024;SDS011;22890;51.820;8.682;2022-10-16T14:17:45;0.70;;;0.57;;
11024;SDS011;22890;51.820;8.682;2022-10-16T14:20:17;2.00;;;0.67;;
11024;SDS011;22890;51.820;8.682;2022-10-16T14:22:45;1.60;;;0.60;;
11024;SDS011;22890;51.820;8.682;2022-10-16T14:27:45;0.93;;;0.40;;
11024;SDS011;22890;51.820;8.682;2022-10-16T14:30:30;1.13;;;0.70;;
11024;SDS011;22890;51.820;8.682;2022-10-16T14:33:18;0.50;;;0.50;;
11024;SDS011;22890;51.820;8.682;2022-10-16T14:38:32;0.70;;;0.40;;
11024;SDS011;22890;51.820;8.682;2022-10-16T14:40:59;2.50;;;0.40;;
11024;SDS011;22890;51.820;8.682;2022-10-16T14:46:03;0.83;;;0.40;;
11024;SDS011;22890;51.820;8.682;2022-10-16T14:48:40;1.37;;;0.73;;
11024;SDS011;22890;51.820;8.682;2022-10-16T14:51:18;1.23;;;0.47;;
11024;SDS011;22890;51.820;8.682;2022-10-16T14:53:46;2.30;;;0.50;;
11024;SDS011;22890;51.820;8.682;2022-10-16T14:56:22;1.03;;;0.53;;
11024;SDS011;22890;51.820;8.682;2022-10-16T14:58:51;1.30;;;0.50;;
11024;SDS011;22890;51.820;8.682;2022-10-16T15:01:19;1.80;;;1.10;;
11024;SDS011;22890;51.820;8.682;2022-10-16T15:03:46;2.13;;;1.10;;
11024;SDS011;22890;51.820;8.682;2022-10-16T15:06:16;1.67;;;1.00;;
11024;SDS011;22890;51.820;8.682;2022-10-16T15:08:43;3.67;;;1.17;;
11024;SDS011;22890;51.820;8.682;2022-10-16T15:11:11;2.27;;;0.83;;
11024;SDS011;22890;51.820;8.682;2022-10-16T15:13:40;0.97;;;0.50;;
11024;SDS011;22890;51.820;8.682;2022-10-16T15:16:11;2.20;;;0.57;;
11024;SDS011;22890;51.820;8.682;2022-10-16T15:18:39;2.07;;;1.20;;
11024;SDS011;22890;51.820;8.682;2022-10-16T15:21:06;2.73;;;1.00;;
11024;SDS011;22890;51.820;8.682;2022-10-16T15:23:32;2.97;;;0.87;;
11024;SDS011;22890;51.820;8.682;2022-10-16T15:25:59;2.70;;;0.60;;
11024;SDS011;22890;51.820;8.682;2022-10-16T15:28:26;2.70;;;0.70;;
11024;SDS011;22890;51.820;8.682;2022-10-16T15:30:54;0.60;;;0.60;;
11024;SDS011;22890;51.820;8.682;2022-10-16T15:33:24;1.80;;;0.83;;
11024;SDS011;22890;51.820;8.682;2022-10-16T15:35:54;0.93;;;0.60;;
11024;SDS011;22890;51.820;8.682;2022-10-16T15:38:21;1.23;;;0.70;;
11024;SDS011;22890;51.820;8.682;2022-10-16T15:40:49;1.93;;;0.97;;
11024;SDS011;22890;51.820;8.682;2022-10-16T15:43:16;1.77;;;0.70;;
11024;SDS011;22890;51.820;8.682;2022-10-16T15:45:46;1.63;;;0.80;;
11024;SDS011;22890;51.820;8.682;2022-10-16T15:48:26;0.97;;;0.60;;
11024;SDS011;22890;51.820;8.682;2022-10-16T15:50:54;1.57;;;0.63;;
11024;SDS011;22890;51.820;8.682;2022-10-16T15:53:21;5.67;;;1.30;;
11024;SDS011;22890;51.820;8.682;2022-10-16T15:55:48;1.77;;;0.60;;
11024;SDS011;22890;51.820;8.682;2022-10-16T15:58:15;1.10;;;0.53;;
11024;SDS011;22890;51.820;8.682;2022-10-16T16:00:41;1.33;;;0.67;;
11024;SDS011;22890;51.820;8.682;2022-10-16T16:03:08;1.57;;;0.60;;
11024;SDS011;22890;51.820;8.682;2022-10-16T16:05:37;1.23;;;0.60;;
11024;SDS011;22890;51.820;8.682;2022-10-16T16:08:11;2.30;;;0.70;;
11024;SDS011;22890;51.820;8.682;2022-10-16T16:10:38;1.73;;;0.60;;
11024;SDS011;22890;51.820;8.682;2022-10-16T16:13:04;3.63;;;0.63;;
11024;SDS011;22890;51.820;8.682;2022-10-16T16:15:31;1.63;;;0.57;;
11024;SDS011;22890;51.820;8.682;2022-10-16T16:17:58;1.10;;;0.50;;
11024;SDS011;22890;51.820;8.682;2022-10-16T16:20:24;1.03;;;0.40;;
11024;SDS011;22890;51.820;8.682;2022-10-16T16:22:51;1.93;;;0.90;;
11024;SDS011;22890;51.820;8.682;2022-10-16T16:25:17;2.80;;;0.83;;
11024;SDS011;22890;51.820;8.682;2022-10-16T16:27:44;3.53;;;0.87;;
11024;SDS011;22890;51.820;8.682;2022-10-16T16:30:11;3.03;;;2.00;;
11024;SDS011;22890;51.820;8.682;2022-10-16T16:32:45;2.97;;;0.93;;
11024;SDS011;22890;51.820;8.682;2022-10-16T16:35:11;1.83;;;0.90;;
11024;SDS011;22890;51.820;8.682;2022-10-16T16:37:38;1.50;;;0.97;;
11024;SDS011;22890;51.820;8.682;2022-10-16T16:40:05;2.63;;;0.97;;
11024;SDS011;22890;51.820;8.682;2022-10-16T16:42:31;1.70;;;0.87;;
11024;SDS011;22890;51.820;8.682;2022-10-16T16:44:58;3.70;;;1.13;;
11024;SDS011;22890;51.820;8.682;2022-10-16T16:47:25;2.67;;;1.47;;